sensor_id;sensor_type;location;lat;lon;timestamp;P1;durP1;ratioP1;P2;durP2;ratioP2
35042;SDS011;21230;51.170;17.024;2023-01-29T00:01:05;29.10;;;15.27;;
35042;SDS011;21230;51.170;17.024;2023-01-29T00:03:33;24.02;;;11.20;;
35042;SDS011;21230;51.170;17.024;2023-01-29T00:05:59;21.23;;;9.70;;
35042;SDS011;21230;51.170;17.024;2023-01-29T00:08:32;15.35;;;8.15;;
35042;SDS011;21230;51.170;17.024;2023-01-29T00:11:02;12.48;;;7.85;;
35042;SDS011;21230;51.170;17.024;2023-01-29T00:13:29;25.27;;;12.05;;
35042;SDS011;21230;51.170;17.024;2023-01-29T00:15:56;25.20;;;9.65;;
35042;SDS011;21230;51.170;17.024;2023-01-29T00:18:23;17.27;;;7.95;;
35042;SDS011;21230;51.170;17.024;2023-01-29T00:20:52;8.75;;;6.10;;
35042;SDS011;21230;51.170;17.024;2023-01-29T00:23:19;20.63;;;8.50;;
35042;SDS011;21230;51.170;17.024;2023-01-29T00:25:45;16.95;;;8.80;;
35042;SDS011;21230;51.170;17.024;2023-01-29T00:28:12;20.95;;;9.55;;
35042;SDS011;21230;51.170;17.024;2023-01-29T00:30:38;21.42;;;11.02;;
35042;SDS011;21230;51.170;17.024;2023-01-29T00:33:04;36.00;;;14.63;;
35042;SDS011;21230;51.170;17.024;2023-01-29T00:35:30;34.08;;;14.95;;
35042;SDS011;21230;51.170;17.024;2023-01-29T00:37:59;31.00;;;13.65;;
35042;SDS011;21230;51.170;17.024;2023-01-29T00:40:25;28.60;;;11.63;;
35042;SDS011;21230;51.170;17.024;2023-01-29T00:42:51;21.63;;;11.00;;
35042;SDS011;21230;51.170;17.024;2023-01-29T00:45:37;20.60;;;9.52;;
35042;SDS011;21230;51.170;17.024;2023-01-29T00:48:03;19.08;;;9.30;;
35042;SDS011;21230;51.170;17.024;2023-01-29T00:50:29;18.55;;;10.57;;
35042;SDS011;21230;51.170;17.024;2023-01-29T00:52:56;16.45;;;10.52;;
35042;SDS011;21230;51.170;17.024;2023-01-29T00:55:22;16.58;;;9.93;;
35042;SDS011;21230;51.170;17.024;2023-01-29T00:57:49;22.30;;;11.15;;
35042;SDS011;21230;51.170;17.024;2023-01-29T01:00:16;20.15;;;11.20;;
35042;SDS011;21230;51.170;17.024;2023-01-29T01:02:43;16.27;;;8.50;;
35042;SDS011;21230;51.170;17.024;2023-01-29T01:05:30;17.23;;;9.63;;
35042;SDS011;21230;51.170;17.024;2023-01-29T01:07:57;16.80;;;8.52;;
35042;SDS011;21230;51.170;17.024;2023-01-29T01:10:28;20.77;;;10.35;;
35042;SDS011;21230;51.170;17.024;2023-01-29T01:13:00;18.90;;;11.45;;
35042;SDS011;21230;51.170;17.024;2023-01-29T01:15:28;18.73;;;10.98;;
35042;SDS011;21230;51.170;17.024;2023-01-29T01:18:01;17.77;;;11.68;;
35042;SDS011;21230;51.170;17.024;2023-01-29T01:22:57;20.33;;;12.68;;
35042;SDS011;21230;51.170;17.024;2023-01-29T01:25:23;32.75;;;13.38;;
35042;SDS011;21230;51.170;17.024;2023-01-29T01:27:51;21.63;;;13.35;;
35042;SDS011;21230;51.170;17.024;2023-01-29T01:30:22;18.65;;;11.23;;
35042;SDS011;21230;51.170;17.024;2023-01-29T01:32:49;28.05;;;15.10;;
35042;SDS011;21230;51.170;17.024;2023-01-29T01:35:15;20.25;;;12.02;;
35042;SDS011;21230;51.170;17.024;2023-01-29T01:37:43;23.25;;;13.18;;
35042;SDS011;21230;51.170;17.024;2023-01-29T01:40:12;20.20;;;11.25;;
35042;SDS011;21230;51.170;17.024;2023-01-29T01:42:42;20.23;;;11.52;;
35042;SDS011;21230;51.170;17.024;2023-01-29T01:45:21;17.17;;;9.97;;
35042;SDS011;21230;51.170;17.024;2023-01-29T01:47:51;18.75;;;10.57;;
35042;SDS011;21230;51.170;17.024;2023-01-29T01:53:08;20.63;;;11.95;;
35042;SDS011;21230;51.170;17.024;2023-01-29T01:55:38;17.70;;;9.90;;
35042;SDS011;21230;51.170;17.024;2023-01-29T01:58:10;16.35;;;9.45;;
35042;SDS011;21230;51.170;17.024;2023-01-29T02:00:40;17.48;;;10.65;;
35042;SDS011;21230;51.170;17.024;2023-01-29T02:03:08;20.53;;;10.67;;
35042;SDS011;21230;51.170;17.024;2023-01-29T02:05:55;16.73;;;9.05;;
35042;SDS011;21230;51.170;17.024;2023-01-29T02:08:54;18.10;;;10.35;;
35042;SDS011;21230;51.170;17.024;2023-01-29T02:11:47;18.17;;;9.40;;
35042;SDS011;21230;51.170;17.024;2023-01-29T02:14:14;17.48;;;8.20;;
35042;SDS011;21230;51.170;17.024;2023-01-29T02:16:40;23.15;;;8.60;;
35042;SDS011;21230;51.170;17.024;2023-01-29T02:19:09;16.13;;;8.93;;
35042;SDS011;21230;51.170;17.024;2023-01-29T02:25:20;12.30;;;6.75;;
35042;SDS011;21230;51.170;17.024;2023-01-29T02:28:18;17.02;;;7.85;;
35042;SDS011;21230;51.170;17.024;2023-01-29T02:34:21;11.75;;;6.82;;
35042;SDS011;21230;51.170;17.024;2023-01-29T02:37:33;10.25;;;7.30;;
35042;SDS011;21230;51.170;17.024;2023-01-29T02:43:40;12.82;;;7.47;;
35042;SDS011;21230;51.170;17.024;2023-01-29T02:49:01;10.90;;;6.97;;
35042;SDS011;21230;51.170;17.024;2023-01-29T02:51:53;16.58;;;7.82;;
35042;SDS011;21230;51.170;17.024;2023-01-29T02:54:45;20.08;;;8.20;;
35042;SDS011;21230;51.170;17.024;2023-01-29T02:57:22;13.35;;;8.23;;
35042;SDS011;21230;51.170;17.024;2023-01-29T03:02:25;14.32;;;8.77;;
35042;SDS011;21230;51.170;17.024;2023-01-29T03:05:00;11.90;;;6.63;;
35042;SDS011;21230;51.170;17.024;2023-01-29T03:07:34;14.77;;;8.52;;
35042;SDS011;21230;51.170;17.024;2023-01-29T03:10:34;15.02;;;8.63;;
35042;SDS011;21230;51.170;17.024;2023-01-29T03:13:06;15.25;;;7.28;;
35042;SDS011;21230;51.170;17.024;2023-01-29T03:15:45;20.40;;;11.45;;
35042;SDS011;21230;51.170;17.024;2023-01-29T03:18:29;13.00;;;8.35;;
35042;SDS011;21230;51.170;17.024;2023-01-29T03:21:04;20.10;;;9.05;;
35042;SDS011;21230;51.170;17.024;2023-01-29T03:23:54;16.73;;;8.43;;
35042;SDS011;21230;51.170;17.024;2023-01-29T03:26:41;19.02;;;9.25;;
35042;SDS011;21230;51.170;17.024;2023-01-29T03:29:32;10.57;;;7.28;;
35042;SDS011;21230;51.170;17.024;2023-01-29T03:34:52;19.80;;;8.93;;
35042;SDS011;21230;51.170;17.024;2023-01-29T03:40:04;10.98;;;6.95;;
35042;SDS011;21230;51.170;17.024;2023-01-29T03:49:11;17.95;;;8.38;;
35042;SDS011;21230;51.170;17.024;2023-01-29T03:57:34;13.98;;;8.43;;
35042;SDS011;21230;51.170;17.024;2023-01-29T04:00:44;8.52;;;5.45;;
35042;SDS011;21230;51.170;17.024;2023-01-29T04:06:10;14.63;;;6.72;;
35042;SDS011;21230;51.170;17.024;2023-01-29T04:11:17;7.97;;;4.78;;
35042;SDS011;21230;51.170;17.024;2023-01-29T04:13:48;10.10;;;6.32;;
35042;SDS011;21230;51.170;17.024;2023-01-29T04:16:17;13.68;;;6.70;;
35042;SDS011;21230;51.170;17.024;2023-01-29T04:18:50;8.57;;;5.68;;
35042;SDS011;21230;51.170;17.024;2023-01-29T04:21:16;14.73;;;6.43;;
35042;SDS011;21230;51.170;17.024;2023-01-29T04:23:43;10.43;;;6.53;;
35042;SDS011;21230;51.170;17.024;2023-01-29T04:33:12;9.30;;;6.22;;
35042;SDS011;21230;51.170;17.024;2023-01-29T04:41:12;12.18;;;6.45;;
35042;SDS011;21230;51.170;17.024;2023-01-29T04:52:14;13.30;;;7.07;;
35042;SDS011;21230;51.170;17.024;2023-01-29T04:55:07;20.80;;;8.75;;
35042;SDS011;21230;51.170;17.024;2023-01-29T04:57:47;18.88;;;8.25;;
35042;SDS011;21230;51.170;17.024;2023-01-29T05:00:36;15.27;;;8.40;;
35042;SDS011;21230;51.170;17.024;2023-01-29T05:03:09;12.30;;;7.40;;
35042;SDS011;21230;51.170;17.024;2023-01-29T05:05:41;11.20;;;6.97;;
35042;SDS011;21230;51.170;17.024;2023-01-29T05:08:11;18.05;;;7.07;;
35042;SDS011;21230;51.170;17.024;2023-01-29T05:10:41;12.35;;;7.07;;
35042;SDS011;21230;51.170;17.024;2023-01-29T05:13:09;15.10;;;6.95;;
35042;SDS011;21230;51.170;17.024;2023-01-29T05:15:48;17.23;;;6.32;;
35042;SDS011;21230;51.170;17.024;2023-01-29T05:18:20;12.68;;;7.85;;
35042;SDS011;21230;51.170;17.024;2023-01-29T05:20:46;11.90;;;7.65;;
35042;SDS011;21230;51.170;17.024;2023-01-29T05:23:17;15.82;;;8.05;;
35042;SDS011;21230;51.170;17.024;2023-01-29T05:25:47;12.48;;;7.18;;
35042;SDS011;21230;51.170;17.024;2023-01-29T05:28:15;9.05;;;6.53;;
35042;SDS011;21230;51.170;17.024;2023-01-29T05:30:46;15.05;;;7.10;;
35042;SDS011;21230;51.170;17.024;2023-01-29T05:33:17;16.05;;;7.00;;
35042;SDS011;21230;51.170;17.024;2023-01-29T05:35:57;11.25;;;6.05;;
35042;SDS011;21230;51.170;17.024;2023-01-29T05:38:24;12.57;;;7.82;;
35042;SDS011;21230;51.170;17.024;2023-01-29T05:40:50;11.07;;;7.00;;
35042;SDS011;21230;51.170;17.024;2023-01-29T05:43:22;13.77;;;7.65;;
35042;SDS011;21230;51.170;17.024;2023-01-29T05:45:56;14.48;;;7.53;;
35042;SDS011;21230;51.170;17.024;2023-01-29T05:48:26;15.95;;;8.38;;
35042;SDS011;21230;51.170;17.024;2023-01-29T05:51:01;12.43;;;7.10;;
35042;SDS011;21230;51.170;17.024;2023-01-29T05:53:29;9.63;;;6.60;;
35042;SDS011;21230;51.170;17.024;2023-01-29T05:55:55;11.15;;;7.70;;
35042;SDS011;21230;51.170;17.024;2023-01-29T05:58:29;13.40;;;6.80;;
35042;SDS011;21230;51.170;17.024;2023-01-29T06:00:57;10.47;;;7.17;;
35042;SDS011;21230;51.170;17.024;2023-01-29T06:03:23;13.75;;;9.60;;
35042;SDS011;21230;51.170;17.024;2023-01-29T06:05:49;15.70;;;8.20;;
35042;SDS011;21230;51.170;17.024;2023-01-29T06:08:15;13.60;;;9.27;;
35042;SDS011;21230;51.170;17.024;2023-01-29T06:10:43;13.95;;;7.50;;
35042;SDS011;21230;51.170;17.024;2023-01-29T06:13:09;13.38;;;8.27;;
35042;SDS011;21230;51.170;17.024;2023-01-29T06:15:37;11.95;;;7.70;;
35042;SDS011;21230;51.170;17.024;2023-01-29T06:18:05;14.40;;;8.30;;
35042;SDS011;21230;51.170;17.024;2023-01-29T06:20:30;15.75;;;9.60;;
35042;SDS011;21230;51.170;17.024;2023-01-29T06:22:57;12.30;;;8.45;;
35042;SDS011;21230;51.170;17.024;2023-01-29T06:25:23;16.75;;;8.85;;
35042;SDS011;21230;51.170;17.024;2023-01-29T06:27:50;13.75;;;8.43;;
35042;SDS011;21230;51.170;17.024;2023-01-29T06:30:17;11.98;;;8.07;;
35042;SDS011;21230;51.170;17.024;2023-01-29T06:32:45;18.55;;;9.88;;
35042;SDS011;21230;51.170;17.024;2023-01-29T06:35:13;16.70;;;7.85;;
35042;SDS011;21230;51.170;17.024;2023-01-29T06:37:42;15.10;;;8.20;;
35042;SDS011;21230;51.170;17.024;2023-01-29T06:40:08;17.15;;;9.60;;
35042;SDS011;21230;51.170;17.024;2023-01-29T06:42:35;14.77;;;7.90;;
35042;SDS011;21230;51.170;17.024;2023-01-29T06:45:05;17.23;;;8.98;;
35042;SDS011;21230;51.170;17.024;2023-01-29T06:47:32;14.48;;;7.70;;
35042;SDS011;21230;51.170;17.024;2023-01-29T06:50:00;11.85;;;7.88;;
35042;SDS011;21230;51.170;17.024;2023-01-29T06:52:27;17.67;;;8.15;;
35042;SDS011;21230;51.170;17.024;2023-01-29T06:54:56;14.00;;;8.07;;
35042;SDS011;21230;51.170;17.024;2023-01-29T06:57:22;12.93;;;7.38;;
35042;SDS011;21230;51.170;17.024;2023-01-29T06:59:48;14.85;;;8.00;;
35042;SDS011;21230;51.170;17.024;2023-01-29T07:02:14;15.00;;;8.68;;
35042;SDS011;21230;51.170;17.024;2023-01-29T07:04:42;16.20;;;8.20;;
35042;SDS011;21230;51.170;17.024;2023-01-29T07:07:10;12.65;;;7.20;;
35042;SDS011;21230;51.170;17.024;2023-01-29T07:09:40;11.50;;;8.23;;
35042;SDS011;21230;51.170;17.024;2023-01-29T07:12:07;16.27;;;8.10;;
35042;SDS011;21230;51.170;17.024;2023-01-29T07:14:34;20.95;;;8.25;;
35042;SDS011;21230;51.170;17.024;2023-01-29T07:17:02;12.63;;;8.18;;
35042;SDS011;21230;51.170;17.024;2023-01-29T07:19:28;18.17;;;8.63;;
35042;SDS011;21230;51.170;17.024;2023-01-29T07:21:54;15.88;;;8.55;;
35042;SDS011;21230;51.170;17.024;2023-01-29T07:24:21;16.40;;;8.95;;
35042;SDS011;21230;51.170;17.024;2023-01-29T07:26:47;13.20;;;7.57;;
35042;SDS011;21230;51.170;17.024;2023-01-29T07:29:14;16.38;;;9.65;;
35042;SDS011;21230;51.170;17.024;2023-01-29T07:31:40;15.77;;;9.77;;
35042;SDS011;21230;51.170;17.024;2023-01-29T07:34:08;17.67;;;7.65;;
35042;SDS011;21230;51.170;17.024;2023-01-29T07:36:35;20.00;;;8.20;;
35042;SDS011;21230;51.170;17.024;2023-01-29T07:39:01;20.40;;;10.68;;
35042;SDS011;21230;51.170;17.024;2023-01-29T07:41:27;17.50;;;8.13;;
35042;SDS011;21230;51.170;17.024;2023-01-29T07:43:53;13.75;;;7.75;;
35042;SDS011;21230;51.170;17.024;2023-01-29T07:46:20;12.57;;;6.60;;
35042;SDS011;21230;51.170;17.024;2023-01-29T07:48:46;18.52;;;9.13;;
35042;SDS011;21230;51.170;17.024;2023-01-29T07:51:12;11.05;;;7.00;;
35042;SDS011;21230;51.170;17.024;2023-01-29T07:53:37;12.20;;;7.80;;
35042;SDS011;21230;51.170;17.024;2023-01-29T07:56:04;18.27;;;9.75;;
35042;SDS011;21230;51.170;17.024;2023-01-29T07:58:30;13.32;;;8.75;;
35042;SDS011;21230;51.170;17.024;2023-01-29T08:00:56;17.80;;;7.93;;
35042;SDS011;21230;51.170;17.024;2023-01-29T08:03:22;12.70;;;7.80;;
35042;SDS011;21230;51.170;17.024;2023-01-29T08:05:49;15.95;;;8.07;;
35042;SDS011;21230;51.170;17.024;2023-01-29T08:08:19;21.15;;;8.57;;
35042;SDS011;21230;51.170;17.024;2023-01-29T08:10:45;11.57;;;6.97;;
35042;SDS011;21230;51.170;17.024;2023-01-29T08:13:14;24.90;;;9.98;;
35042;SDS011;21230;51.170;17.024;2023-01-29T08:15:42;21.58;;;10.95;;
35042;SDS011;21230;51.170;17.024;2023-01-29T08:18:12;14.80;;;9.45;;
35042;SDS011;21230;51.170;17.024;2023-01-29T08:20:39;24.08;;;9.15;;
35042;SDS011;21230;51.170;17.024;2023-01-29T08:23:06;15.60;;;8.85;;
35042;SDS011;21230;51.170;17.024;2023-01-29T08:25:35;21.92;;;11.90;;
35042;SDS011;21230;51.170;17.024;2023-01-29T08:28:02;19.58;;;10.15;;
35042;SDS011;21230;51.170;17.024;2023-01-29T08:30:29;16.17;;;9.40;;
35042;SDS011;21230;51.170;17.024;2023-01-29T08:32:59;16.48;;;10.02;;
35042;SDS011;21230;51.170;17.024;2023-01-29T08:35:25;20.23;;;7.78;;
35042;SDS011;21230;51.170;17.024;2023-01-29T08:37:55;15.38;;;9.02;;
35042;SDS011;21230;51.170;17.024;2023-01-29T08:40:34;13.50;;;8.48;;
35042;SDS011;21230;51.170;17.024;2023-01-29T08:43:01;19.55;;;9.38;;
35042;SDS011;21230;51.170;17.024;2023-01-29T08:45:29;19.08;;;10.27;;
35042;SDS011;21230;51.170;17.024;2023-01-29T08:48:01;23.52;;;9.63;;
35042;SDS011;21230;51.170;17.024;2023-01-29T08:50:34;19.80;;;10.32;;
35042;SDS011;21230;51.170;17.024;2023-01-29T08:53:02;14.57;;;8.57;;
35042;SDS011;21230;51.170;17.024;2023-01-29T08:55:31;16.98;;;10.05;;
35042;SDS011;21230;51.170;17.024;2023-01-29T08:58:10;17.27;;;10.55;;
35042;SDS011;21230;51.170;17.024;2023-01-29T09:00:45;23.65;;;11.60;;
35042;SDS011;21230;51.170;17.024;2023-01-29T09:03:12;24.85;;;12.07;;
35042;SDS011;21230;51.170;17.024;2023-01-29T09:05:39;17.02;;;10.23;;
35042;SDS011;21230;51.170;17.024;2023-01-29T09:08:05;32.35;;;9.90;;
35042;SDS011;21230;51.170;17.024;2023-01-29T09:10:33;16.95;;;8.48;;
35042;SDS011;21230;51.170;17.024;2023-01-29T09:13:00;15.32;;;9.38;;
35042;SDS011;21230;51.170;17.024;2023-01-29T09:15:26;27.88;;;9.77;;
35042;SDS011;21230;51.170;17.024;2023-01-29T09:17:52;19.23;;;10.75;;
35042;SDS011;21230;51.170;17.024;2023-01-29T09:20:18;20.15;;;10.48;;
35042;SDS011;21230;51.170;17.024;2023-01-29T09:22:47;20.83;;;10.60;;
35042;SDS011;21230;51.170;17.024;2023-01-29T09:25:17;25.38;;;11.23;;
35042;SDS011;21230;51.170;17.024;2023-01-29T09:27:48;17.85;;;10.48;;
35042;SDS011;21230;51.170;17.024;2023-01-29T09:30:22;22.98;;;9.88;;
35042;SDS011;21230;51.170;17.024;2023-01-29T09:32:51;25.90;;;9.10;;
35042;SDS011;21230;51.170;17.024;2023-01-29T09:35:18;19.63;;;9.25;;
35042;SDS011;21230;51.170;17.024;2023-01-29T09:37:52;28.65;;;12.40;;
35042;SDS011;21230;51.170;17.024;2023-01-29T09:40:29;17.02;;;10.52;;
35042;SDS011;21230;51.170;17.024;2023-01-29T09:49:27;21.23;;;9.45;;
35042;SDS011;21230;51.170;17.024;2023-01-29T09:52:09;19.73;;;11.88;;
35042;SDS011;21230;51.170;17.024;2023-01-29T09:58:24;14.30;;;8.02;;
35042;SDS011;21230;51.170;17.024;2023-01-29T10:19:04;19.63;;;9.38;;
35042;SDS011;21230;51.170;17.024;2023-01-29T10:25:01;17.52;;;8.90;;
35042;SDS011;21230;51.170;17.024;2023-01-29T10:27:40;14.00;;;8.13;;
35042;SDS011;21230;51.170;17.024;2023-01-29T10:30:32;12.60;;;7.85;;
35042;SDS011;21230;51.170;17.024;2023-01-29T10:33:02;16.33;;;9.02;;
35042;SDS011;21230;51.170;17.024;2023-01-29T10:35:53;27.63;;;9.75;;
35042;SDS011;21230;51.170;17.024;2023-01-29T10:38:46;16.73;;;8.55;;
35042;SDS011;21230;51.170;17.024;2023-01-29T10:53:37;11.32;;;7.47;;
35042;SDS011;21230;51.170;17.024;2023-01-29T10:56:20;18.05;;;7.35;;
35042;SDS011;21230;51.170;17.024;2023-01-29T10:58:54;17.88;;;7.50;;
35042;SDS011;21230;51.170;17.024;2023-01-29T11:01:25;11.80;;;7.28;;
35042;SDS011;21230;51.170;17.024;2023-01-29T11:03:56;16.42;;;7.60;;
35042;SDS011;21230;51.170;17.024;2023-01-29T11:06:30;12.80;;;8.48;;
35042;SDS011;21230;51.170;17.024;2023-01-29T11:14:35;13.95;;;8.15;;
35042;SDS011;21230;51.170;17.024;2023-01-29T11:17:22;24.63;;;8.10;;
35042;SDS011;21230;51.170;17.024;2023-01-29T11:19:51;20.08;;;8.40;;
35042;SDS011;21230;51.170;17.024;2023-01-29T11:22:27;13.05;;;7.95;;
35042;SDS011;21230;51.170;17.024;2023-01-29T11:27:45;16.50;;;8.23;;
35042;SDS011;21230;51.170;17.024;2023-01-29T11:30:31;13.02;;;7.18;;
35042;SDS011;21230;51.170;17.024;2023-01-29T11:33:22;18.90;;;9.18;;
35042;SDS011;21230;51.170;17.024;2023-01-29T11:35:49;17.02;;;8.65;;
35042;SDS011;21230;51.170;17.024;2023-01-29T11:38:25;17.25;;;9.77;;
35042;SDS011;21230;51.170;17.024;2023-01-29T11:41:13;14.07;;;8.63;;
35042;SDS011;21230;51.170;17.024;2023-01-29T11:43:49;24.75;;;9.18;;
35042;SDS011;21230;51.170;17.024;2023-01-29T11:46:22;18.02;;;10.68;;
35042;SDS011;21230;51.170;17.024;2023-01-29T11:48:52;14.40;;;7.95;;
35042;SDS011;21230;51.170;17.024;2023-01-29T11:51:21;15.38;;;8.07;;
35042;SDS011;21230;51.170;17.024;2023-01-29T11:53:55;18.00;;;7.10;;
35042;SDS011;21230;51.170;17.024;2023-01-29T11:56:31;16.65;;;8.32;;
35042;SDS011;21230;51.170;17.024;2023-01-29T11:59:13;12.55;;;6.25;;
35042;SDS011;21230;51.170;17.024;2023-01-29T12:07:54;14.38;;;7.63;;
35042;SDS011;21230;51.170;17.024;2023-01-29T12:10:45;11.30;;;5.68;;
35042;SDS011;21230;51.170;17.024;2023-01-29T12:17:01;14.43;;;8.20;;
35042;SDS011;21230;51.170;17.024;2023-01-29T12:20:01;17.40;;;9.50;;
35042;SDS011;21230;51.170;17.024;2023-01-29T12:25:50;16.33;;;7.30;;
35042;SDS011;21230;51.170;17.024;2023-01-29T12:30:54;16.00;;;8.95;;
35042;SDS011;21230;51.170;17.024;2023-01-29T12:37:10;19.65;;;8.43;;
35042;SDS011;21230;51.170;17.024;2023-01-29T12:40:12;17.38;;;8.35;;
35042;SDS011;21230;51.170;17.024;2023-01-29T12:42:48;12.57;;;7.00;;
35042;SDS011;21230;51.170;17.024;2023-01-29T12:45:21;16.00;;;8.90;;
35042;SDS011;21230;51.170;17.024;2023-01-29T12:47:56;16.75;;;7.72;;
35042;SDS011;21230;51.170;17.024;2023-01-29T12:50:31;19.13;;;8.45;;
35042;SDS011;21230;51.170;17.024;2023-01-29T12:53:06;15.27;;;6.18;;
35042;SDS011;21230;51.170;17.024;2023-01-29T12:55:57;15.20;;;7.70;;
35042;SDS011;21230;51.170;17.024;2023-01-29T12:58:40;11.40;;;6.78;;
35042;SDS011;21230;51.170;17.024;2023-01-29T13:01:27;10.73;;;6.80;;
35042;SDS011;21230;51.170;17.024;2023-01-29T13:07:06;13.50;;;7.45;;
35042;SDS011;21230;51.170;17.024;2023-01-29T13:09:40;14.43;;;7.22;;
35042;SDS011;21230;51.170;17.024;2023-01-29T13:12:11;19.27;;;8.40;;
35042;SDS011;21230;51.170;17.024;2023-01-29T13:17:25;16.90;;;5.57;;
35042;SDS011;21230;51.170;17.024;2023-01-29T13:20:11;13.60;;;6.22;;
35042;SDS011;21230;51.170;17.024;2023-01-29T13:22:48;11.98;;;6.65;;
35042;SDS011;21230;51.170;17.024;2023-01-29T13:25:17;9.40;;;5.40;;
35042;SDS011;21230;51.170;17.024;2023-01-29T13:27:53;8.90;;;5.32;;
35042;SDS011;21230;51.170;17.024;2023-01-29T13:30:31;15.60;;;5.57;;
35042;SDS011;21230;51.170;17.024;2023-01-29T13:33:02;14.75;;;5.88;;
35042;SDS011;21230;51.170;17.024;2023-01-29T13:35:39;11.82;;;5.80;;
35042;SDS011;21230;51.170;17.024;2023-01-29T13:38:21;13.05;;;6.97;;
35042;SDS011;21230;51.170;17.024;2023-01-29T13:40:55;12.98;;;7.13;;
35042;SDS011;21230;51.170;17.024;2023-01-29T13:43:40;15.25;;;6.43;;
35042;SDS011;21230;51.170;17.024;2023-01-29T13:46:13;9.60;;;5.70;;
35042;SDS011;21230;51.170;17.024;2023-01-29T13:48:43;11.90;;;6.70;;
35042;SDS011;21230;51.170;17.024;2023-01-29T13:51:14;12.45;;;5.95;;
35042;SDS011;21230;51.170;17.024;2023-01-29T13:53:55;13.68;;;7.05;;
35042;SDS011;21230;51.170;17.024;2023-01-29T13:59:00;10.10;;;5.90;;
35042;SDS011;21230;51.170;17.024;2023-01-29T14:12:03;15.88;;;8.27;;
35042;SDS011;21230;51.170;17.024;2023-01-29T14:17:26;13.73;;;7.00;;
35042;SDS011;21230;51.170;17.024;2023-01-29T14:20:02;16.02;;;9.02;;
35042;SDS011;21230;51.170;17.024;2023-01-29T14:22:55;16.67;;;8.55;;
35042;SDS011;21230;51.170;17.024;2023-01-29T14:25:28;20.58;;;9.07;;
35042;SDS011;21230;51.170;17.024;2023-01-29T14:27:57;15.90;;;8.60;;
35042;SDS011;21230;51.170;17.024;2023-01-29T14:30:29;14.00;;;8.00;;
35042;SDS011;21230;51.170;17.024;2023-01-29T14:55:55;20.92;;;9.85;;
35042;SDS011;21230;51.170;17.024;2023-01-29T14:58:50;17.13;;;8.77;;
35042;SDS011;21230;51.170;17.024;2023-01-29T15:01:35;20.65;;;10.88;;
35042;SDS011;21230;51.170;17.024;2023-01-29T15:04:28;25.75;;;11.75;;
35042;SDS011;21230;51.170;17.024;2023-01-29T15:09:51;22.15;;;11.75;;
35042;SDS011;21230;51.170;17.024;2023-01-29T15:12:47;22.10;;;9.55;;
35042;SDS011;21230;51.170;17.024;2023-01-29T15:18:36;26.60;;;11.73;;
35042;SDS011;21230;51.170;17.024;2023-01-29T15:23:41;21.80;;;11.88;;
35042;SDS011;21230;51.170;17.024;2023-01-29T15:26:27;20.92;;;11.82;;
35042;SDS011;21230;51.170;17.024;2023-01-29T15:29:01;18.90;;;10.90;;
35042;SDS011;21230;51.170;17.024;2023-01-29T15:31:28;24.00;;;10.63;;
35042;SDS011;21230;51.170;17.024;2023-01-29T15:33:55;21.23;;;9.75;;
35042;SDS011;21230;51.170;17.024;2023-01-29T15:36:22;21.92;;;10.45;;
35042;SDS011;21230;51.170;17.024;2023-01-29T15:44:54;17.63;;;9.82;;
35042;SDS011;21230;51.170;17.024;2023-01-29T15:47:24;20.75;;;10.77;;
35042;SDS011;21230;51.170;17.024;2023-01-29T15:49:56;17.33;;;10.52;;
35042;SDS011;21230;51.170;17.024;2023-01-29T15:55:27;24.98;;;13.25;;
35042;SDS011;21230;51.170;17.024;2023-01-29T15:59:02;24.73;;;13.43;;
35042;SDS011;21230;51.170;17.024;2023-01-29T16:01:31;30.10;;;12.93;;
35042;SDS011;21230;51.170;17.024;2023-01-29T16:04:08;28.67;;;14.02;;
35042;SDS011;21230;51.170;17.024;2023-01-29T16:06:57;31.85;;;16.50;;
35042;SDS011;21230;51.170;17.024;2023-01-29T16:12:00;25.65;;;13.00;;
35042;SDS011;21230;51.170;17.024;2023-01-29T16:14:28;20.27;;;13.27;;
35042;SDS011;21230;51.170;17.024;2023-01-29T16:16:55;24.98;;;13.73;;
35042;SDS011;21230;51.170;17.024;2023-01-29T16:19:28;28.60;;;14.93;;
35042;SDS011;21230;51.170;17.024;2023-01-29T16:22:03;34.15;;;15.55;;
35042;SDS011;21230;51.170;17.024;2023-01-29T16:24:34;22.40;;;13.50;;
35042;SDS011;21230;51.170;17.024;2023-01-29T16:27:09;23.38;;;13.10;;
35042;SDS011;21230;51.170;17.024;2023-01-29T16:29:38;23.92;;;13.93;;
35042;SDS011;21230;51.170;17.024;2023-01-29T16:32:05;32.05;;;14.07;;
35042;SDS011;21230;51.170;17.024;2023-01-29T16:34:43;28.00;;;13.50;;
35042;SDS011;21230;51.170;17.024;2023-01-29T16:37:22;23.90;;;12.57;;
35042;SDS011;21230;51.170;17.024;2023-01-29T16:39:58;22.20;;;13.38;;
35042;SDS011;21230;51.170;17.024;2023-01-29T16:42:29;27.85;;;13.55;;
35042;SDS011;21230;51.170;17.024;2023-01-29T16:44:57;25.50;;;14.50;;
35042;SDS011;21230;51.170;17.024;2023-01-29T16:47:37;21.15;;;11.80;;
35042;SDS011;21230;51.170;17.024;2023-01-29T16:50:54;21.25;;;11.20;;
35042;SDS011;21230;51.170;17.024;2023-01-29T16:53:17;31.67;;;14.65;;
35042;SDS011;21230;51.170;17.024;2023-01-29T16:55:46;27.27;;;14.00;;
35042;SDS011;21230;51.170;17.024;2023-01-29T16:58:14;29.15;;;14.57;;
35042;SDS011;21230;51.170;17.024;2023-01-29T17:00:53;21.88;;;12.98;;
35042;SDS011;21230;51.170;17.024;2023-01-29T17:03:31;25.80;;;15.32;;
35042;SDS011;21230;51.170;17.024;2023-01-29T17:06:17;27.15;;;11.52;;
35042;SDS011;21230;51.170;17.024;2023-01-29T17:08:50;35.88;;;15.95;;
35042;SDS011;21230;51.170;17.024;2023-01-29T17:11:24;24.27;;;13.00;;
35042;SDS011;21230;51.170;17.024;2023-01-29T17:14:17;34.00;;;15.15;;
35042;SDS011;21230;51.170;17.024;2023-01-29T17:16:49;25.27;;;13.45;;
35042;SDS011;21230;51.170;17.024;2023-01-29T17:19:23;22.83;;;13.25;;
35042;SDS011;21230;51.170;17.024;2023-01-29T17:21:50;29.92;;;15.52;;
35042;SDS011;21230;51.170;17.024;2023-01-29T17:24:18;29.30;;;14.68;;
35042;SDS011;21230;51.170;17.024;2023-01-29T17:29:16;26.38;;;14.07;;
35042;SDS011;21230;51.170;17.024;2023-01-29T17:31:46;28.33;;;14.63;;
35042;SDS011;21230;51.170;17.024;2023-01-29T17:34:12;32.63;;;15.50;;
35042;SDS011;21230;51.170;17.024;2023-01-29T17:36:43;32.78;;;17.25;;
35042;SDS011;21230;51.170;17.024;2023-01-29T17:39:18;29.75;;;15.02;;
35042;SDS011;21230;51.170;17.024;2023-01-29T17:41:50;37.75;;;14.75;;
35042;SDS011;21230;51.170;17.024;2023-01-29T17:44:18;28.05;;;15.15;;
35042;SDS011;21230;51.170;17.024;2023-01-29T17:46:45;40.33;;;14.40;;
35042;SDS011;21230;51.170;17.024;2023-01-29T17:51:51;40.67;;;15.70;;
35042;SDS011;21230;51.170;17.024;2023-01-29T17:54:24;25.13;;;13.63;;
35042;SDS011;21230;51.170;17.024;2023-01-29T17:56:54;29.23;;;16.40;;
35042;SDS011;21230;51.170;17.024;2023-01-29T17:59:25;34.65;;;15.18;;
35042;SDS011;21230;51.170;17.024;2023-01-29T18:01:56;18.95;;;9.68;;
35042;SDS011;21230;51.170;17.024;2023-01-29T18:04:23;26.25;;;11.75;;
35042;SDS011;21230;51.170;17.024;2023-01-29T18:06:50;23.15;;;10.65;;
35042;SDS011;21230;51.170;17.024;2023-01-29T18:09:18;21.52;;;10.35;;
35042;SDS011;21230;51.170;17.024;2023-01-29T18:11:48;23.67;;;11.70;;
35042;SDS011;21230;51.170;17.024;2023-01-29T18:14:17;20.27;;;11.00;;
35042;SDS011;21230;51.170;17.024;2023-01-29T18:16:43;21.25;;;11.48;;
35042;SDS011;21230;51.170;17.024;2023-01-29T18:19:23;18.48;;;10.77;;